Time;durP1;ratioP1;P1;durP2;ratioP2;P2;SDS_P1;SDS_P2;PMS_P1;PMS_P2;Temp;Humidity;BMP_temperature;BMP_pressure;BME280_temperature;BME280_humidity;BME280_pressure;Samples;Min_cycle;Max_cycle;Signal;HPM_P1;HPM_P2
2023/06/20 00:01:01;;;;;;;20.95;16.08;;;16.30;99.90;;;;;;5115658;28;20051;-26
2023/06/20 00:03:26;;;;;;;20.02;15.93;;;16.30;99.90;;;;;;5115769;28;20044;-25
2023/06/20 00:05:52;;;;;;;20.73;15.63;;;16.30;99.90;;;;;;5116379;28;20088;-26
2023/06/20 00:08:18;;;;;;;18.90;16.05;;;16.20;99.90;;;;;;5098224;28;20046;-26
2023/06/20 00:10:43;;;;;;;23.65;17.15;;;16.20;99.90;;;;;;5098126;28;20055;-26
2023/06/20 00:13:09;;;;;;;22.13;17.65;;;16.20;99.90;;;;;;5097442;28;20043;-26
2023/06/20 00:15:35;;;;;;;22.48;16.92;;;16.10;99.90;;;;;;5097626;28;20044;-26
2023/06/20 00:18:00;;;;;;;21.38;16.98;;;16.10;99.90;;;;;;5116395;28;20050;-26
2023/06/20 00:20:27;;;;;;;23.42;16.63;;;16.10;99.90;;;;;;5115538;28;20052;-26
2023/06/20 00:22:53;;;;;;;24.40;18.23;;;16.00;99.90;;;;;;5115435;28;20079;-26
2023/06/20 00:25:19;;;;;;;25.00;17.55;;;16.10;99.90;;;;;;5115635;28;20043;-25
2023/06/20 00:27:45;;;;;;;28.13;19.17;;;16.10;99.90;;;;;;5115249;28;20036;-26
2023/06/20 00:30:11;;;;;;;29.08;18.65;;;16.10;99.90;;;;;;5096311;28;20047;-26
2023/06/20 00:32:37;;;;;;;27.30;19.38;;;16.00;99.90;;;;;;5097835;28;20465;-26
2023/06/20 00:35:03;;;;;;;29.65;22.70;;;16.00;99.90;;;;;;5097157;28;20233;-25
2023/06/20 00:37:29;;;;;;;25.60;18.73;;;16.00;99.90;;;;;;5115747;28;20127;-25
2023/06/20 00:39:54;;;;;;;27.17;19.33;;;16.10;99.90;;;;;;5080296;28;20071;-25
2023/06/20 00:42:25;;;;;;;28.75;19.85;;;16.00;99.90;;;;;;5097708;28;20043;-26
2023/06/20 00:44:52;;;;;;;31.35;21.20;;;16.00;99.90;;;;;;5096953;28;20507;-25
2023/06/20 00:47:18;;;;;;;26.48;21.00;;;16.00;99.90;;;;;;5115848;28;20431;-26
2023/06/20 00:49:46;;;;;;;26.38;20.75;;;15.90;99.90;;;;;;5114967;28;20055;-26
2023/06/20 00:52:20;;;;;;;27.58;19.75;;;15.90;99.90;;;;;;5115762;28;20176;-26
2023/06/20 00:54:47;;;;;;;28.48;19.05;;;15.90;99.90;;;;;;5115544;28;20047;-25
2023/06/20 00:57:22;;;;;;;31.02;21.42;;;15.90;99.90;;;;;;5096733;28;20085;-26
2023/06/20 00:59:49;;;;;;;25.88;18.95;;;15.80;99.90;;;;;;5115425;28;20389;-24
2023/06/20 01:02:16;;;;;;;26.95;20.17;;;15.80;99.90;;;;;;5114931;28;20050;-26
2023/06/20 01:04:44;;;;;;;29.60;19.85;;;15.80;99.90;;;;;;5115550;28;20354;-24
2023/06/20 01:07:35;;;;;;;25.70;19.10;;;15.80;99.90;;;;;;5096719;28;20039;-26
2023/06/20 01:10:11;;;;;;;30.38;22.25;;;15.90;99.90;;;;;;5115512;28;20044;-26
2023/06/20 01:12:54;;;;;;;30.83;21.83;;;15.90;99.90;;;;;;5097479;28;20055;-24
2023/06/20 01:15:38;;;;;;;29.17;21.33;;;16.00;99.90;;;;;;5115351;28;20048;-24
2023/06/20 01:18:16;;;;;;;;;;;16.00;99.90;;;;;;5115534;28;20051;-24
2023/06/20 01:20:46;;;;;;;25.75;19.17;;;16.00;99.90;;;;;;5114547;28;20014;-26
2023/06/20 01:23:29;;;;;;;28.35;20.70;;;16.00;99.90;;;;;;5114398;28;20043;-25
2023/06/20 01:26:17;;;;;;;33.05;21.58;;;16.00;99.90;;;;;;5114348;28;20055;-25
2023/06/20 01:29:10;;;;;;;29.60;21.50;;;16.00;99.90;;;;;;5114369;28;20050;-26
2023/06/20 01:31:38;;;;;;;29.65;21.92;;;16.10;99.90;;;;;;5113885;28;20443;-25
2023/06/20 01:34:08;;;;;;;30.15;20.45;;;16.20;99.90;;;;;;5096577;28;20057;-24
2023/06/20 01:36:38;;;;;;;29.23;21.42;;;16.20;99.90;;;;;;5114527;28;20093;-25
2023/06/20 01:39:29;;;;;;;28.58;20.90;;;16.20;99.90;;;;;;5114166;28;20047;-26
2023/06/20 01:41:58;;;;;;;31.92;19.23;;;16.30;99.90;;;;;;5114486;28;20058;-26
2023/06/20 01:44:26;;;;;;;25.55;18.48;;;16.30;99.90;;;;;;5114182;28;20036;-24
2023/06/20 01:46:54;;;;;;;25.33;18.92;;;16.30;99.90;;;;;;5114044;28;20401;-25
2023/06/20 01:49:21;;;;;;;26.13;19.92;;;16.30;99.90;;;;;;5114146;28;20048;-26
2023/06/20 01:51:50;;;;;;;23.38;17.70;;;16.40;99.90;;;;;;5096274;28;20051;-25
2023/06/20 01:54:17;;;;;;;24.75;17.67;;;16.30;99.90;;;;;;5114106;28;20036;-24
2023/06/20 01:56:44;;;;;;;21.90;16.70;;;16.40;99.90;;;;;;5114097;28;20094;-25
2023/06/20 01:59:11;;;;;;;28.92;16.80;;;16.40;99.90;;;;;;5114035;28;20077;-25
2023/06/20 02:01:42;;;;;;;24.38;16.30;;;16.40;99.90;;;;;;5113979;28;20373;-26
2023/06/20 02:04:09;;;;;;;17.13;14.00;;;16.40;99.90;;;;;;5097011;28;20043;-24
2023/06/20 02:06:36;;;;;;;19.85;14.25;;;16.40;99.90;;;;;;5113934;28;20126;-24
2023/06/20 02:09:04;;;;;;;16.42;12.50;;;16.40;99.90;;;;;;5114525;28;20051;-25
2023/06/20 02:11:30;;;;;;;17.33;12.57;;;16.40;99.90;;;;;;5096561;28;20051;-25
2023/06/20 02:13:57;;;;;;;18.45;13.55;;;16.40;99.90;;;;;;5113890;28;20396;-26
2023/06/20 02:16:24;;;;;;;15.77;12.13;;;16.50;99.90;;;;;;5112678;28;20052;-26
2023/06/20 02:18:50;;;;;;;16.80;11.57;;;16.50;99.90;;;;;;5114665;28;20044;-25
2023/06/20 02:21:22;;;;;;;15.88;11.23;;;16.40;99.90;;;;;;5113773;28;20384;-26
2023/06/20 02:23:53;;;;;;;15.98;11.25;;;16.40;99.90;;;;;;5114024;28;20032;-25
2023/06/20 02:26:22;;;;;;;16.42;10.40;;;16.50;99.90;;;;;;5095808;28;20056;-24
2023/06/20 02:28:53;;;;;;;11.77;10.35;;;16.50;99.90;;;;;;5096123;28;20395;-26
2023/06/20 02:31:28;;;;;;;14.13;10.45;;;16.50;99.90;;;;;;5113793;28;20147;-26
2023/06/20 02:33:57;;;;;;;14.95;10.18;;;16.50;99.90;;;;;;5113721;28;20046;-26
2023/06/20 02:36:26;;;;;;;14.77;9.80;;;16.50;99.90;;;;;;5113981;28;20047;-26
2023/06/20 02:38:56;;;;;;;13.35;9.18;;;16.50;99.90;;;;;;5113637;28;20044;-25
2023/06/20 02:41:23;;;;;;;13.88;9.00;;;16.50;99.90;;;;;;5095643;28;20122;-26
2023/06/20 02:43:49;;;;;;;12.68;8.35;;;16.50;99.90;;;;;;5113527;28;20050;-25
2023/06/20 02:46:33;;;;;;;11.48;8.73;;;16.50;99.90;;;;;;5113107;28;20497;-26
2023/06/20 02:49:18;;;;;;;10.60;8.38;;;16.50;99.90;;;;;;5095459;28;20240;-25
2023/06/20 02:52:21;;;;;;;10.18;7.80;;;16.60;99.90;;;;;;5114572;28;20065;-25
2023/06/20 02:54:55;;;;;;;10.73;7.90;;;16.60;99.90;;;;;;5117528;28;20481;-26
2023/06/20 02:57:21;;;;;;;10.77;7.97;;;16.60;99.90;;;;;;5099098;28;20047;-26
2023/06/20 02:59:55;;;;;;;10.93;7.05;;;16.60;99.90;;;;;;5117123;28;20048;-25
2023/06/20 03:02:24;;;;;;;10.13;8.00;;;16.60;99.90;;;;;;5099885;28;20051;-25
2023/06/20 03:04:56;;;;;;;11.27;7.63;;;16.60;99.90;;;;;;5116734;28;20047;-25
2023/06/20 03:07:25;;;;;;;11.13;8.00;;;16.60;99.90;;;;;;5117634;28;20380;-26
2023/06/20 03:09:52;;;;;;;10.75;7.35;;;16.60;99.90;;;;;;5117775;28;20051;-25
2023/06/20 03:12:18;;;;;;;11.10;7.72;;;16.60;99.90;;;;;;5117453;28;20040;-24
2023/06/20 03:14:44;;;;;;;11.75;7.82;;;16.60;99.90;;;;;;5117441;28;20126;-25
2023/06/20 03:17:10;;;;;;;11.80;7.90;;;16.60;99.90;;;;;;5116759;28;20069;-24
2023/06/20 03:19:35;;;;;;;9.50;7.40;;;16.60;99.90;;;;;;5098559;28;20043;-25
2023/06/20 03:22:01;;;;;;;12.35;7.90;;;16.70;99.90;;;;;;5116619;28;20094;-26
2023/06/20 03:24:27;;;;;;;10.43;7.53;;;16.70;99.90;;;;;;5116646;28;20039;-26
2023/06/20 03:26:52;;;;;;;10.07;7.60;;;16.70;99.90;;;;;;5116499;28;20046;-25
2023/06/20 03:29:18;;;;;;;13.45;8.48;;;16.80;99.90;;;;;;5116653;28;20374;-25
2023/06/20 03:31:44;;;;;;;11.20;8.48;;;16.80;99.90;;;;;;5116771;28;20097;-25
2023/06/20 03:34:09;;;;;;;13.40;8.55;;;16.70;99.90;;;;;;5117043;28;20375;-24
2023/06/20 03:36:35;;;;;;;9.82;8.65;;;16.80;99.90;;;;;;5116386;28;20044;-25
2023/06/20 03:39:01;;;;;;;15.55;8.93;;;16.80;99.90;;;;;;5081434;28;20055;-26
2023/06/20 03:41:26;;;;;;;11.52;9.40;;;16.80;99.90;;;;;;5116352;28;20039;-25
2023/06/20 03:43:52;;;;;;;16.55;9.85;;;16.80;99.90;;;;;;5116244;28;20050;-25
2023/06/20 03:46:18;;;;;;;12.45;9.93;;;16.80;99.90;;;;;;5116584;28;20051;-26
2023/06/20 03:48:43;;;;;;;11.98;9.60;;;16.80;99.90;;;;;;5116146;28;20408;-25
2023/06/20 03:51:09;;;;;;;12.00;9.40;;;16.80;99.90;;;;;;5116163;28;20051;-25
2023/06/20 03:53:35;;;;;;;13.50;10.35;;;16.90;99.90;;;;;;5098110;28;20476;-24
2023/06/20 03:56:02;;;;;;;15.27;9.98;;;16.90;99.90;;;;;;5116338;28;20080;-24
2023/06/20 03:58:28;;;;;;;13.13;10.05;;;16.90;99.90;;;;;;5098380;28;20059;-25
2023/06/20 04:00:54;;;;;;;15.23;10.68;;;17.00;99.90;;;;;;5115984;28;20163;-26
2023/06/20 04:03:19;;;;;;;13.75;10.35;;;17.00;99.90;;;;;;5115755;28;20051;-26
2023/06/20 04:05:45;;;;;;;14.25;10.27;;;17.00;99.90;;;;;;5115801;28;20127;-25
2023/06/20 04:08:11;;;;;;;15.43;10.90;;;17.00;99.90;;;;;;5115872;28;20135;-26
2023/06/20 04:10:37;;;;;;;15.27;10.25;;;17.10;99.90;;;;;;5116132;28;20050;-25
2023/06/20 04:13:03;;;;;;;14.95;10.70;;;17.10;99.90;;;;;;5097663;28;20075;-25
2023/06/20 04:15:29;;;;;;;14.82;9.57;;;17.20;99.90;;;;;;5116004;28;20079;-25
2023/06/20 04:17:55;;;;;;;14.30;10.43;;;17.20;99.90;;;;;;5116205;28;20381;-26
2023/06/20 04:20:20;;;;;;;13.73;9.85;;;17.30;99.90;;;;;;5115565;28;20054;-26
2023/06/20 04:22:46;;;;;;;11.20;9.10;;;17.30;99.90;;;;;;5115457;28;20582;-26
2023/06/20 04:25:13;;;;;;;12.88;9.35;;;17.30;99.90;;;;;;5097468;28;20516;-25
2023/06/20 04:27:39;;;;;;;13.60;9.38;;;17.40;99.90;;;;;;5097160;28;20055;-26
2023/06/20 04:30:05;;;;;;;14.38;8.93;;;17.40;99.90;;;;;;5080424;28;20048;-26
2023/06/20 04:32:32;;;;;;;12.65;9.23;;;17.50;99.90;;;;;;5115313;28;20054;-26
2023/06/20 04:34:58;;;;;;;12.77;8.57;;;17.50;99.90;;;;;;5115282;28;20127;-25
2023/06/20 04:37:23;;;;;;;10.43;8.40;;;17.60;99.90;;;;;;5115234;28;20126;-26
2023/06/20 04:39:49;;;;;;;11.05;8.55;;;17.60;99.90;;;;;;5115727;28;20130;-26
2023/06/20 04:42:15;;;;;;;11.45;8.98;;;17.70;99.90;;;;;;5096931;28;20047;-26
2023/06/20 04:44:44;;;;;;;13.02;8.05;;;17.80;99.90;;;;;;5115046;28;20112;-26
2023/06/20 04:47:12;;;;;;;10.77;8.43;;;17.90;99.90;;;;;;5115392;28;20099;-25
2023/06/20 04:49:40;;;;;;;10.43;8.55;;;17.90;99.90;;;;;;5114983;28;20130;-26
2023/06/20 04:52:06;;;;;;;13.07;10.00;;;18.00;99.90;;;;;;5114909;28;20127;-26
2023/06/20 04:54:32;;;;;;;11.15;8.82;;;18.10;99.90;;;;;;5114853;28;20083;-26
2023/06/20 04:56:58;;;;;;;10.75;8.68;;;18.20;99.90;;;;;;5115153;28;20075;-26
2023/06/20 04:59:24;;;;;;;12.00;8.73;;;18.20;99.90;;;;;;5114787;28;20417;-26
2023/06/20 05:01:51;;;;;;;13.10;10.07;;;18.30;99.90;;;;;;5114770;28;20058;-26
2023/06/20 05:04:19;;;;;;;11.15;9.07;;;18.30;99.90;;;;;;5115212;28;20058;-26
2023/06/20 05:06:48;;;;;;;11.23;9.27;;;18.30;99.90;;;;;;5114652;28;20100;-26
2023/06/20 05:09:14;;;;;;;11.38;9.20;;;18.30;99.90;;;;;;5114869;28;20051;-26
2023/06/20 05:11:39;;;;;;;11.70;9.52;;;18.30;99.90;;;;;;5096542;28;20040;-26
2023/06/20 05:14:05;;;;;;;15.13;10.60;;;18.30;99.90;;;;;;5096316;28;20095;-26
2023/06/20 05:16:31;;;;;;;10.70;8.77;;;18.30;99.90;;;;;;5096591;28;20043;-26
2023/06/20 05:18:57;;;;;;;13.38;9.80;;;18.40;99.90;;;;;;5114481;28;20043;-26
2023/06/20 05:21:22;;;;;;;12.40;10.13;;;18.40;99.90;;;;;;5114498;28;20481;-25
2023/06/20 05:23:48;;;;;;;13.52;9.60;;;18.50;99.90;;;;;;5115196;28;20048;-26
2023/06/20 05:26:14;;;;;;;13.23;9.15;;;18.60;99.90;;;;;;5096216;28;20493;-26
2023/06/20 05:28:39;;;;;;;12.57;9.52;;;18.60;99.90;;;;;;5114927;28;20039;-25
2023/06/20 05:31:05;;;;;;;12.27;9.20;;;18.70;99.90;;;;;;5114582;28;20047;-26
2023/06/20 05:33:31;;;;;;;12.15;9.13;;;18.70;99.90;;;;;;5096324;28;20048;-26
2023/06/20 05:35:57;;;;;;;13.38;9.30;;;18.80;99.90;;;;;;5096886;28;20145;-26
2023/06/20 05:38:23;;;;;;;10.48;8.88;;;18.80;99.90;;;;;;5097114;28;20112;-26
2023/06/20 05:40:49;;;;;;;13.05;9.50;;;18.90;94.50;;;;;;5079480;28;20044;-26
2023/06/20 05:43:14;;;;;;;12.50;8.77;;;18.90;88.10;;;;;;5114073;28;20040;-26
2023/06/20 05:45:40;;;;;;;11.77;9.27;;;19.00;14.70;;;;;;5072887;28;20075;-25
2023/06/20 05:48:08;;;;;;;12.05;9.50;;;19.00;1.00;;;;;;5073588;28;20044;-26
2023/06/20 05:50:35;;;;;;;12.30;9.10;;;19.10;1.00;;;;;;5074124;28;20052;-26
2023/06/20 05:53:01;;;;;;;13.88;10.90;;;19.10;1.00;;;;;;5073559;28;20161;-25
2023/06/20 05:55:27;;;;;;;12.30;9.07;;;19.10;1.00;;;;;;5073500;28;20040;-25
2023/06/20 05:57:52;;;;;;;12.48;9.27;;;19.10;1.00;;;;;;5072574;28;20044;-25
2023/06/20 06:00:18;;;;;;;12.75;8.82;;;19.10;1.00;;;;;;5073996;28;20386;-26
2023/06/20 06:02:45;;;;;;;12.82;10.45;;;19.10;1.00;;;;;;5072770;28;20494;-26
2023/06/20 06:05:11;;;;;;;14.00;10.20;;;19.10;1.00;;;;;;5074006;28;20142;-26
2023/06/20 06:07:38;;;;;;;11.45;9.52;;;19.10;1.00;;;;;;5073681;28;20127;-26
2023/06/20 06:10:07;;;;;;;13.18;9.60;;;19.20;1.00;;;;;;5055702;28;20084;-25
2023/06/20 06:12:36;;;;;;;12.80;9.55;;;19.20;1.00;;;;;;5055445;28;20040;-25
2023/06/20 06:15:03;;;;;;;12.10;9.77;;;19.20;1.00;;;;;;5072190;28;20045;-26
2023/06/20 06:17:30;;;;;;;10.73;8.88;;;19.30;1.00;;;;;;5073010;28;20513;-26
2023/06/20 06:19:57;;;;;;;11.68;9.75;;;19.30;1.00;;;;;;5073270;28;20123;-26
2023/06/20 06:22:23;;;;;;;12.43;9.88;;;19.40;1.00;;;;;;5073502;28;20063;-26
2023/06/20 06:24:48;;;;;;;14.88;10.20;;;19.50;1.00;;;;;;5072093;28;20446;-25
2023/06/20 06:27:14;;;;;;;15.98;10.65;;;19.60;1.00;;;;;;5073954;28;20498;-26
2023/06/20 06:29:42;;;;;;;17.33;10.70;;;19.70;99.90;;;;;;5076080;28;20080;-26
2023/06/20 06:32:08;;;;;;;11.75;9.45;;;19.90;99.90;;;;;;5076674;28;20499;-26
2023/06/20 06:34:34;;;;;;;13.43;8.73;;;20.10;99.90;;;;;;5059592;28;20144;-26
2023/06/20 06:37:00;;;;;;;9.95;8.85;;;20.30;99.90;;;;;;5076876;28;20045;-26
2023/06/20 06:39:26;;;;;;;12.13;9.88;;;20.60;99.90;;;;;;5077458;28;20052;-26
2023/06/20 06:41:52;;;;;;;12.35;9.55;;;20.90;99.90;;;;;;5077644;28;20084;-25
2023/06/20 06:44:18;;;;;;;13.68;8.80;;;21.20;34.80;;;;;;5076695;28;20514;-24
2023/06/20 06:46:44;;;;;;;12.85;8.85;;;22.00;1.00;;;;;;5089321;28;20116;-25
2023/06/20 06:49:10;;;;;;;13.93;9.50;;;22.10;99.90;;;;;;5112805;28;20079;-25
2023/06/20 06:51:39;;;;;;;11.63;9.80;;;22.90;99.90;;;;;;5096960;28;20083;-26
2023/06/20 06:54:05;;;;;;;13.43;9.80;;;23.40;99.90;;;;;;5096856;28;20485;-26
2023/06/20 06:56:31;;;;;;;12.30;9.32;;;23.50;99.90;;;;;;5096832;28;20176;-26
2023/06/20 06:59:00;;;;;;;12.32;9.57;;;23.40;99.90;;;;;;5078953;28;20097;-27
2023/06/20 07:01:29;;;;;;;13.05;10.77;;;23.30;99.90;;;;;;5096724;28;20052;-27
2023/06/20 07:03:55;;;;;;;11.38;9.13;;;23.10;61.10;;;;;;5096583;28;20510;-26
2023/06/20 07:06:21;;;;;;;10.32;9.27;;;23.30;94.70;;;;;;5096638;28;20048;-26
2023/06/20 07:08:46;;;;;;;11.40;9.88;;;23.40;1.00;;;;;;5096851;28;20193;-25
2023/06/20 07:11:12;;;;;;;11.48;9.52;;;23.40;1.00;;;;;;5095585;28;20047;-26
2023/06/20 07:13:38;;;;;;;12.25;9.57;;;23.40;1.00;;;;;;5096491;28;20047;-26
2023/06/20 07:16:04;;;;;;;12.38;10.68;;;23.40;1.00;;;;;;5096407;28;20052;-26
2023/06/20 07:18:29;;;;;;;17.10;11.68;;;23.30;1.00;;;;;;5095223;28;20051;-26
2023/06/20 07:20:57;;;;;;;11.75;9.98;;;23.10;1.00;;;;;;5095250;28;20480;-26
2023/06/20 07:23:23;;;;;;;12.75;10.63;;;23.00;1.00;;;;;;5095140;28;20084;-26
2023/06/20 07:25:49;;;;;;;15.55;10.77;;;22.90;17.50;;;;;;5096196;28;20086;-26
2023/06/20 07:28:14;;;;;;;12.63;9.48;;;22.90;99.90;;;;;;5095275;28;20084;-26
2023/06/20 07:30:40;;;;;;;12.70;9.73;;;22.80;99.90;;;;;;5096250;28;20075;-26
2023/06/20 07:33:06;;;;;;;13.80;10.27;;;22.70;99.90;;;;;;5096153;28;20043;-26
2023/06/20 07:35:32;;;;;;;10.77;9.73;;;22.70;99.90;;;;;;5096151;28;20474;-26
2023/06/20 07:37:58;;;;;;;11.30;9.52;;;22.70;99.90;;;;;;5094269;28;20048;-27
2023/06/20 07:40:24;;;;;;;15.55;10.80;;;22.60;99.90;;;;;;5095973;28;20051;-26
2023/06/20 07:42:50;;;;;;;12.30;10.05;;;22.70;99.90;;;;;;5095850;28;20054;-27
2023/06/20 07:45:15;;;;;;;14.77;10.38;;;22.80;99.90;;;;;;5096056;28;20104;-25
2023/06/20 07:47:41;;;;;;;12.63;10.93;;;22.80;99.90;;;;;;5117128;28;20055;-26
2023/06/20 07:50:09;;;;;;;14.15;9.80;;;22.90;99.90;;;;;;5116826;28;20112;-26
2023/06/20 07:52:36;;;;;;;13.02;9.63;;;23.00;99.90;;;;;;5116183;28;20074;-26
2023/06/20 07:55:03;;;;;;;12.30;9.77;;;23.00;99.90;;;;;;5116082;28;20048;-26
2023/06/20 07:57:28;;;;;;;14.07;10.63;;;23.10;99.90;;;;;;5116640;28;20362;-26
2023/06/20 07:59:54;;;;;;;12.18;9.93;;;23.20;99.90;;;;;;5115973;28;20047;-26
2023/06/20 08:02:21;;;;;;;12.75;10.38;;;23.20;99.90;;;;;;5115857;28;20495;-26
2023/06/20 08:04:48;;;;;;;15.23;10.48;;;23.20;99.90;;;;;;5115927;28;20043;-26
2023/06/20 08:07:13;;;;;;;14.57;10.30;;;23.10;99.90;;;;;;5114749;28;20048;-26
2023/06/20 08:09:39;;;;;;;16.73;10.77;;;23.30;99.90;;;;;;5116356;28;20093;-26
2023/06/20 08:12:05;;;;;;;12.65;10.82;;;23.50;99.90;;;;;;5115741;28;20046;-26
2023/06/20 08:14:31;;;;;;;12.70;10.05;;;23.70;99.90;;;;;;5098099;28;20050;-26
2023/06/20 08:16:57;;;;;;;12.77;10.93;;;23.80;99.90;;;;;;5115675;28;20048;-26
2023/06/20 08:19:22;;;;;;;15.15;11.07;;;24.00;99.90;;;;;;5115671;28;20055;-26
2023/06/20 08:21:48;;;;;;;14.70;9.88;;;24.20;99.90;;;;;;5080396;28;20044;-26
2023/06/20 08:24:14;;;;;;;12.93;11.02;;;24.50;43.70;;;;;;5115420;28;20043;-26
2023/06/20 08:26:39;;;;;;;13.50;10.05;;;24.70;1.00;;;;;;5115348;28;20040;-27
2023/06/20 08:29:08;;;;;;;12.48;9.98;;;25.00;99.90;;;;;;5115965;28;20200;-26
2023/06/20 08:31:37;;;;;;;13.75;9.55;;;25.20;99.90;;;;;;5097176;28;20448;-27
2023/06/20 08:34:04;;;;;;;16.17;9.77;;;25.50;1.00;;;;;;5115649;28;20092;-27
2023/06/20 08:36:30;;;;;;;13.70;10.18;;;25.80;1.00;;;;;;5116118;28;20412;-27
2023/06/20 08:38:56;;;;;;;9.02;7.82;;;26.30;99.90;;;;;;5114978;28;20481;-27
2023/06/20 08:41:26;;;;;;;8.30;7.50;;;26.50;39.50;;;;;;5096990;28;20039;-27
2023/06/20 08:43:54;;;;;;;9.52;7.85;;;26.90;99.90;;;;;;5114851;28;20096;-26
2023/06/20 08:46:23;;;;;;;12.55;6.78;;;27.10;28.90;;;;;;5114668;28;20051;-27
2023/06/20 08:48:48;;;;;;;8.55;7.68;;;27.30;99.90;;;;;;5114998;28;20048;-26
2023/06/20 08:51:20;;;;;;;8.85;7.68;;;27.10;1.00;;;;;;5115069;28;20050;-27
2023/06/20 08:53:46;;;;;;;12.25;8.15;;;26.80;20.90;;;;;;5114948;28;20054;-27
2023/06/20 08:56:17;;;;;;;10.30;7.57;;;26.20;99.90;;;;;;5115192;28;20464;-27
2023/06/20 08:58:43;;;;;;;9.00;7.38;;;25.90;99.90;;;;;;5096910;28;20055;-27
2023/06/20 09:01:09;;;;;;;8.25;7.40;;;25.70;1.00;;;;;;5096713;28;20036;-26
2023/06/20 09:03:35;;;;;;;8.75;7.93;;;25.40;1.00;;;;;;5114657;28;20395;-26
2023/06/20 09:06:02;;;;;;;10.63;8.05;;;25.10;99.90;;;;;;5115558;28;20050;-27
2023/06/20 09:08:43;;;;;;;8.90;7.97;;;24.90;99.90;;;;;;5096538;28;20039;-26
2023/06/20 09:11:11;;;;;;;9.90;8.85;;;24.80;99.90;;;;;;5114918;28;20473;-27
2023/06/20 09:13:37;;;;;;;9.02;8.07;;;24.70;1.00;;;;;;5096684;28;20047;-26
2023/06/20 09:16:09;;;;;;;9.63;8.52;;;24.80;1.00;;;;;;5114562;28;20089;-26
2023/06/20 09:18:35;;;;;;;;;;;25.00;1.00;;;;;;5115499;28;20047;-26
2023/06/20 09:21:02;;;;;;;12.20;8.55;;;25.10;1.00;;;;;;5114513;28;19919;-26
2023/06/20 09:23:32;;;;;;;9.23;8.23;;;25.20;1.00;;;;;;5114951;28;20131;-27
2023/06/20 09:26:16;;;;;;;11.40;8.77;;;25.30;1.00;;;;;;5114306;28;20537;-26
2023/06/20 09:28:42;;;;;;;9.43;7.75;;;25.40;99.90;;;;;;5114501;28;20132;-26
2023/06/20 09:31:08;;;;;;;11.20;7.90;;;25.30;99.90;;;;;;5114342;28;20039;-26
2023/06/20 09:33:37;;;;;;;8.43;7.63;;;25.10;99.90;;;;;;5114377;28;20046;-26
2023/06/20 09:36:16;;;;;;;8.23;7.40;;;25.00;99.90;;;;;;5114303;28;20044;-26
2023/06/20 09:38:52;;;;;;;9.43;7.60;;;25.10;1.00;;;;;;5114616;28;20083;-26
2023/06/20 09:41:17;;;;;;;11.13;8.20;;;25.10;1.00;;;;;;5114595;28;20479;-27
2023/06/20 09:43:46;;;;;;;7.93;7.07;;;25.20;1.00;;;;;;5114149;28;20048;-26
2023/06/20 09:46:12;;;;;;;8.18;7.25;;;25.30;1.00;;;;;;5113958;28;20067;-27
2023/06/20 09:48:39;;;;;;;8.52;7.70;;;25.50;1.00;;;;;;5114175;28;20048;-26
2023/06/20 09:51:09;;;;;;;10.70;7.18;;;25.60;1.00;;;;;;5096158;28;20534;-27
2023/06/20 09:53:50;;;;;;;9.07;8.02;;;25.90;99.90;;;;;;5114099;28;20090;-27
2023/06/20 09:56:19;;;;;;;8.13;7.22;;;26.10;99.90;;;;;;5114103;28;20044;-26
2023/06/20 09:58:46;;;;;;;11.63;7.50;;;26.40;99.90;;;;;;5114019;28;20083;-26
2023/06/20 10:01:20;;;;;;;7.88;6.18;;;26.80;48.20;;;;;;5097241;28;20047;-27
2023/06/20 10:03:46;;;;;;;8.55;6.47;;;27.60;99.90;;;;;;5118273;28;20040;-27
2023/06/20 10:06:12;;;;;;;9.85;6.22;;;28.40;86.30;;;;;;5100153;28;20048;-27
2023/06/20 10:08:40;;;;;;;7.35;6.65;;;29.50;1.00;;;;;;5117938;28;20558;-27
2023/06/20 10:11:07;;;;;;;6.90;5.70;;;30.50;1.00;;;;;;5100149;28;20050;-27
2023/06/20 10:13:33;;;;;;;8.40;6.18;;;;;;;;;;5118661;28;20047;-26
2023/06/20 10:16:04;;;;;;;8.25;6.35;;;31.20;99.90;;;;;;5118309;28;20047;-27
2023/06/20 10:18:30;;;;;;;8.02;5.68;;;31.70;99.90;;;;;;5100885;28;20100;-28
2023/06/20 10:20:55;;;;;;;5.45;4.95;;;31.60;1.00;;;;;;5118468;28;20047;-28
2023/06/20 10:23:33;;;;;;;6.00;5.40;;;31.30;1.00;;;;;;5117813;28;20042;-27
2023/06/20 10:26:02;;;;;;;6.78;5.82;;;31.40;1.00;;;;;;5118165;28;20059;-27
2023/06/20 10:28:28;;;;;;;5.32;4.82;;;31.40;99.90;;;;;;5118314;28;20047;-28
2023/06/20 10:30:58;;;;;;;8.07;4.63;;;31.60;99.90;;;;;;5117730;28;20522;-27
2023/06/20 10:33:25;;;;;;;8.15;5.22;;;31.90;99.90;;;;;;5117645;28;20039;-28
2023/06/20 10:35:57;;;;;;;6.55;4.72;;;32.00;99.90;;;;;;5117910;28;20048;-27
2023/06/20 10:38:24;;;;;;;6.88;5.05;;;32.20;99.90;;;;;;5118251;28;20040;-27
2023/06/20 10:41:06;;;;;;;9.68;5.40;;;32.30;99.90;;;;;;5118415;28;20120;-27
2023/06/20 10:43:48;;;;;;;5.20;4.75;;;32.30;99.90;;;;;;5117431;28;20044;-27
2023/06/20 10:46:14;;;;;;;6.80;5.22;;;32.20;99.90;;;;;;5117220;28;20074;-28
2023/06/20 10:48:40;;;;;;;5.32;4.57;;;31.70;99.90;;;;;;5100352;28;20055;-27
2023/06/20 10:51:06;;;;;;;8.68;4.30;;;31.70;99.90;;;;;;5117854;28;20044;-28
2023/06/20 10:53:32;;;;;;;6.22;4.65;;;32.20;99.90;;;;;;5117330;28;20039;-28
2023/06/20 10:55:58;;;;;;;7.03;4.53;;;32.60;99.90;;;;;;5099147;28;20126;-27
2023/06/20 10:58:24;;;;;;;9.07;5.60;;;33.00;99.90;;;;;;5117196;28;20054;-27
2023/06/20 11:00:53;;;;;;;7.85;6.45;;;33.30;99.90;;;;;;5098948;28;20050;-29
2023/06/20 11:03:23;;;;;;;6.63;5.63;;;33.30;99.90;;;;;;5117077;28;20469;-28
2023/06/20 11:05:50;;;;;;;6.78;4.90;;;33.50;99.90;;;;;;5082217;28;20061;-27
2023/06/20 11:08:26;;;;;;;7.53;5.22;;;33.50;99.90;;;;;;5117018;28;20047;-27
2023/06/20 11:10:53;;;;;;;5.93;5.43;;;33.50;99.90;;;;;;5117034;28;20079;-27
2023/06/20 11:13:23;;;;;;;4.38;3.97;;;33.50;99.90;;;;;;5115909;28;20122;-28
2023/06/20 11:15:49;;;;;;;4.65;3.95;;;33.40;99.90;;;;;;5117393;28;20092;-28
2023/06/20 11:18:14;;;;;;;5.13;4.10;;;33.10;99.90;;;;;;5081940;28;20044;-29
2023/06/20 11:20:41;;;;;;;5.40;4.28;;;33.10;99.90;;;;;;5116855;28;20047;-28
2023/06/20 11:23:10;;;;;;;8.25;4.03;;;33.00;99.90;;;;;;5116390;28;20504;-27
2023/06/20 11:25:38;;;;;;;6.80;4.05;;;33.30;99.90;;;;;;5117098;28;20126;-28
2023/06/20 11:28:15;;;;;;;4.53;4.07;;;33.30;99.90;;;;;;5116687;28;20045;-27
2023/06/20 11:30:45;;;;;;;5.88;4.40;;;33.20;99.90;;;;;;5117174;28;20039;-28
2023/06/20 11:33:13;;;;;;;4.78;4.20;;;33.10;99.90;;;;;;5116633;28;20573;-27
2023/06/20 11:35:43;;;;;;;5.10;4.60;;;33.20;99.90;;;;;;5116581;28;20047;-27
2023/06/20 11:38:10;;;;;;;4.47;4.07;;;33.10;99.90;;;;;;5098864;28;20051;-28
2023/06/20 11:40:37;;;;;;;4.50;4.10;;;32.90;99.90;;;;;;5116123;28;20492;-28
2023/06/20 11:43:04;;;;;;;5.70;4.20;;;32.90;99.90;;;;;;5117132;28;20043;-28
2023/06/20 11:45:29;;;;;;;4.57;3.95;;;33.10;99.90;;;;;;5116355;28;20055;-27
2023/06/20 11:48:11;;;;;;;7.50;4.57;;;33.40;99.90;;;;;;5080922;28;20060;-28
2023/06/20 11:50:37;;;;;;;;;;;33.40;99.90;;;;;;5099480;28;20051;-28
2023/06/20 11:53:03;;;;;;;6.78;5.53;;;32.50;99.90;;;;;;5116223;28;19926;-27
2023/06/20 11:55:48;;;;;;;5.07;4.25;;;32.40;99.90;;;;;;5116113;28;20056;-28
2023/06/20 11:58:15;;;;;;;6.07;4.60;;;32.80;99.90;;;;;;5098069;28;20068;-28
2023/06/20 12:00:40;;;;;;;6.75;4.00;;;33.30;99.90;;;;;;5116013;28;20055;-28
2023/06/20 12:03:10;;;;;;;5.88;5.00;;;33.50;99.90;;;;;;5116425;27;20039;-27
2023/06/20 12:05:37;;;;;;;5.13;4.65;;;33.70;99.90;;;;;;5116554;27;20043;-28
2023/06/20 12:08:03;;;;;;;5.45;4.38;;;33.60;99.90;;;;;;5115303;28;20066;-28
2023/06/20 12:10:29;;;;;;;6.60;4.40;;;33.30;99.90;;;;;;5079987;28;20083;-27
2023/06/20 12:12:55;;;;;;;6.28;5.13;;;33.10;99.90;;;;;;5115751;28;20452;-28
2023/06/20 12:15:21;;;;;;;6.95;4.90;;;33.10;99.90;;;;;;5097106;28;20126;-28
2023/06/20 12:17:47;;;;;;;5.00;4.50;;;33.30;99.90;;;;;;5098171;28;20097;-27
2023/06/20 12:20:13;;;;;;;4.88;4.40;;;33.10;99.90;;;;;;5115597;28;20043;-28
2023/06/20 12:22:39;;;;;;;7.05;4.45;;;33.20;99.90;;;;;;5115495;28;20047;-28
2023/06/20 12:25:05;;;;;;;4.57;4.15;;;33.70;99.90;;;;;;5115385;28;20044;-28
2023/06/20 12:27:30;;;;;;;9.43;4.78;;;33.90;99.90;;;;;;5115470;28;20047;-28
2023/06/20 12:29:56;;;;;;;9.63;4.70;;;33.70;99.90;;;;;;5097968;28;20050;-27
2023/06/20 12:32:22;;;;;;;6.18;4.05;;;33.50;99.90;;;;;;5115055;28;20548;-27
2023/06/20 12:34:47;;;;;;;5.85;4.20;;;33.50;99.90;;;;;;5115359;28;20100;-27
2023/06/20 12:37:16;;;;;;;4.45;3.90;;;33.40;99.90;;;;;;5115298;28;20040;-27
2023/06/20 12:39:44;;;;;;;6.50;4.40;;;33.30;99.90;;;;;;5097660;28;20043;-27
2023/06/20 12:42:12;;;;;;;4.70;4.30;;;32.60;99.90;;;;;;5115482;28;20051;-28